createdAt,value
2022-11-15T00:01:11.203Z,7.20
2022-11-15T00:03:39.071Z,7.20
2022-11-15T00:06:07.154Z,7.20
2022-11-15T00:08:35.396Z,7.20
2022-11-15T00:11:05.048Z,7.30
2022-11-15T00:13:33.311Z,7.20
2022-11-15T00:16:03.841Z,7.20
2022-11-15T00:18:32.429Z,7.10
2022-11-15T00:21:06.308Z,7.20
2022-11-15T00:23:34.785Z,7.20
2022-11-15T00:26:03.428Z,7.20
2022-11-15T00:28:31.448Z,7.20
2022-11-15T00:31:04.029Z,7.20
2022-11-15T00:33:32.820Z,7.20
2022-11-15T00:36:07.073Z,7.20
2022-11-15T00:38:34.976Z,7.20
2022-11-15T00:41:08.865Z,7.20
2022-11-15T00:43:37.804Z,7.20
2022-11-15T00:46:09.062Z,7.20
2022-11-15T00:48:36.892Z,7.30
2022-11-15T00:51:04.794Z,7.20
2022-11-15T00:53:32.897Z,7.20
2022-11-15T00:56:00.969Z,7.30
2022-11-15T00:58:28.790Z,7.30
2022-11-15T01:00:56.631Z,7.30
2022-11-15T01:03:25.834Z,7.30
2022-11-15T01:05:53.657Z,7.30
2022-11-15T01:08:21.466Z,7.30
2022-11-15T01:10:49.288Z,7.30
2022-11-15T01:13:17.088Z,7.40
2022-11-15T01:15:45.203Z,7.30
2022-11-15T01:18:13.028Z,7.30
2022-11-15T01:20:43.798Z,7.40
2022-11-15T01:23:11.853Z,7.30
2022-11-15T01:25:39.923Z,7.40
2022-11-15T01:28:08.167Z,7.40
2022-11-15T01:30:37.583Z,7.40
2022-11-15T01:33:05.406Z,7.40
2022-11-15T01:35:33.334Z,7.40
2022-11-15T01:38:02.507Z,7.50
2022-11-15T01:40:30.327Z,7.50
2022-11-15T01:42:58.244Z,7.50
2022-11-15T01:45:26.089Z,7.50
2022-11-15T01:47:56.037Z,7.50
2022-11-15T01:50:28.994Z,7.60
2022-11-15T01:52:56.934Z,7.60
2022-11-15T01:55:28.824Z,7.60
2022-11-15T01:58:00.041Z,7.60
2022-11-15T02:00:27.989Z,7.60
2022-11-15T02:02:55.848Z,7.60
2022-11-15T02:05:23.772Z,7.70
2022-11-15T02:07:51.984Z,7.70
2022-11-15T02:10:22.153Z,7.70
2022-11-15T02:12:52.741Z,7.70
2022-11-15T02:15:20.790Z,7.70
2022-11-15T02:18:08.401Z,7.70
2022-11-15T02:20:49.089Z,7.80
2022-11-15T02:23:43.855Z,7.80
2022-11-15T02:26:30.813Z,7.80
2022-11-15T02:29:06.506Z,7.80
2022-11-15T02:31:43.347Z,7.80
2022-11-15T02:34:20.347Z,7.90
2022-11-15T02:36:57.753Z,7.90
2022-11-15T02:39:30.914Z,7.90
2022-11-15T02:42:04.211Z,7.90
2022-11-15T02:44:36.046Z,7.90
2022-11-15T02:47:17.448Z,8.00
2022-11-15T02:49:49.040Z,8.00
2022-11-15T02:52:18.323Z,8.00
2022-11-15T02:54:56.075Z,8.00
2022-11-15T02:57:33.560Z,8.00
2022-11-15T03:00:08.146Z,8.10
2022-11-15T03:03:02.562Z,8.10
2022-11-15T03:05:37.775Z,8.10
2022-11-15T03:08:12.379Z,8.20
2022-11-15T03:10:48.003Z,8.20
2022-11-15T03:13:25.956Z,8.20
2022-11-15T03:15:59.215Z,8.30
2022-11-15T03:18:34.461Z,8.30
2022-11-15T03:21:05.252Z,8.40
2022-11-15T03:23:34.897Z,8.40
2022-11-15T03:26:03.481Z,8.40
2022-11-15T03:28:36.154Z,8.40
2022-11-15T03:31:25.480Z,8.50
2022-11-15T03:33:56.605Z,8.50
2022-11-15T03:36:26.867Z,8.50
2022-11-15T03:38:59.010Z,8.60
2022-11-15T03:41:31.780Z,8.60
2022-11-15T03:44:06.496Z,8.60
2022-11-15T03:46:40.310Z,8.70
2022-11-15T03:49:15.880Z,8.70
2022-11-15T03:51:43.848Z,8.70
2022-11-15T03:54:13.847Z,8.80
2022-11-15T03:56:41.669Z,8.80
2022-11-15T03:59:09.514Z,8.80
2022-11-15T04:01:37.403Z,8.90
2022-11-15T04:04:05.416Z,8.90
2022-11-15T04:06:34.850Z,8.90
2022-11-15T04:09:02.693Z,8.90
2022-11-15T04:11:30.562Z,9.00
2022-11-15T04:13:58.411Z,9.00
2022-11-15T04:16:26.274Z,9.00
2022-11-15T04:19:08.046Z,9.00
2022-11-15T04:21:54.844Z,9.10
2022-11-15T04:24:22.740Z,9.10
2022-11-15T04:26:50.615Z,9.10
2022-11-15T04:29:36.461Z,9.10
2022-11-15T04:32:04.640Z,9.20
2022-11-15T04:34:32.813Z,9.20
2022-11-15T04:37:12.985Z,9.20
2022-11-15T04:39:41.060Z,9.20
2022-11-15T04:42:09.477Z,9.30
2022-11-15T04:44:37.625Z,9.30
2022-11-15T04:47:05.639Z,9.30
2022-11-15T04:49:33.497Z,9.40
2022-11-15T04:52:02.769Z,9.40
2022-11-15T04:54:30.592Z,9.40
2022-11-15T04:56:58.401Z,9.40
2022-11-15T04:59:26.199Z,9.50
2022-11-15T05:01:54.045Z,9.50
2022-11-15T05:04:20.931Z,9.50
2022-11-15T05:06:50.750Z,9.50
2022-11-15T05:09:20.287Z,9.50
2022-11-15T05:11:48.764Z,9.60
2022-11-15T05:14:16.964Z,9.60
2022-11-15T05:16:45.226Z,9.60
2022-11-15T05:19:13.058Z,9.60
2022-11-15T05:21:40.927Z,9.60
2022-11-15T05:24:08.935Z,9.60
2022-11-15T05:26:38.109Z,9.70
2022-11-15T05:29:06.034Z,9.70
2022-11-15T05:31:33.882Z,9.70
2022-11-15T05:34:02.819Z,9.70
2022-11-15T05:36:35.564Z,9.70
2022-11-15T05:39:04.840Z,9.70
2022-11-15T05:41:35.182Z,9.80
2022-11-15T05:44:07.124Z,9.80
2022-11-15T05:46:36.127Z,9.80
2022-11-15T05:49:04.521Z,9.80
2022-11-15T05:51:32.637Z,9.80
2022-11-15T05:54:00.892Z,9.90
2022-11-15T05:56:28.884Z,9.90
2022-11-15T05:58:59.973Z,9.90
2022-11-15T06:01:30.303Z,9.90
2022-11-15T06:03:58.109Z,10.00
2022-11-15T06:06:25.933Z,10.00
2022-11-15T06:08:53.724Z,10.00
2022-11-15T06:11:21.608Z,10.00
2022-11-15T06:13:49.427Z,10.00
2022-11-15T06:16:17.266Z,10.00
2022-11-15T06:18:46.405Z,10.10
2022-11-15T06:21:14.252Z,10.10
2022-11-15T06:23:42.051Z,10.10
2022-11-15T06:26:09.889Z,10.10
2022-11-15T06:28:37.760Z,10.10
2022-11-15T06:31:06.557Z,10.10
2022-11-15T06:33:34.915Z,10.10
2022-11-15T06:36:05.198Z,10.20
2022-11-15T06:38:33.491Z,10.20
2022-11-15T06:41:04.032Z,10.20
2022-11-15T06:43:32.405Z,10.20
2022-11-15T06:46:00.467Z,10.20
2022-11-15T06:48:28.683Z,10.20
2022-11-15T06:50:58.103Z,10.20
2022-11-15T06:53:28.693Z,10.20
2022-11-15T06:56:01.499Z,10.20
2022-11-15T06:58:29.600Z,10.20
2022-11-15T07:01:01.066Z,10.30
2022-11-15T07:03:29.409Z,10.30
2022-11-15T07:06:04.222Z,10.30
2022-11-15T07:08:36.639Z,10.30
2022-11-15T07:11:06.171Z,10.30
2022-11-15T07:13:35.361Z,10.30
2022-11-15T07:16:04.635Z,10.30
2022-11-15T07:18:32.703Z,10.30
2022-11-15T07:21:03.760Z,10.30
2022-11-15T07:23:32.253Z,10.30
2022-11-15T07:26:02.317Z,10.30
2022-11-15T07:28:30.267Z,10.30
2022-11-15T07:30:58.231Z,10.30
2022-11-15T07:33:26.175Z,10.30
2022-11-15T07:35:53.935Z,10.30
2022-11-15T07:38:21.945Z,10.40
2022-11-15T07:40:57.391Z,10.40
2022-11-15T07:43:28.756Z,10.40
2022-11-15T07:45:59.338Z,10.40
2022-11-15T07:48:42.256Z,10.40
2022-11-15T07:51:14.830Z,10.50
2022-11-15T07:53:43.001Z,10.50
2022-11-15T07:56:11.115Z,10.50
2022-11-15T07:58:40.502Z,10.50
2022-11-15T08:01:09.701Z,10.50
2022-11-15T08:03:38.531Z,10.50
2022-11-15T08:06:07.128Z,10.50
2022-11-15T08:08:37.837Z,10.50
2022-11-15T08:11:06.383Z,10.50
2022-11-15T08:13:41.065Z,10.50
2022-11-15T08:16:10.677Z,10.50
2022-11-15T08:18:38.815Z,10.50
2022-11-15T08:21:07.976Z,10.50
2022-11-15T08:23:35.989Z,10.60
2022-11-15T08:26:05.351Z,10.60
2022-11-15T08:28:35.819Z,10.50
2022-11-15T08:31:05.792Z,10.50
2022-11-15T08:33:35.125Z,10.50
2022-11-15T08:36:03.766Z,10.50
2022-11-15T08:38:32.828Z,10.50
2022-11-15T08:41:04.540Z,10.50
2022-11-15T08:43:32.539Z,10.50
2022-11-15T08:46:01.062Z,10.50
2022-11-15T08:48:31.540Z,10.60
2022-11-15T08:50:59.607Z,10.60
2022-11-15T08:53:27.584Z,10.60
2022-11-15T08:55:55.399Z,10.70
2022-11-15T08:58:23.196Z,10.70
2022-11-15T09:00:51.402Z,10.80
2022-11-15T09:03:19.279Z,10.80
2022-11-15T09:05:48.545Z,10.80
2022-11-15T09:08:40.868Z,10.80
2022-11-15T09:11:05.557Z,10.80
2022-11-15T09:13:33.518Z,10.80
2022-11-15T09:16:01.450Z,10.80
2022-11-15T09:18:30.002Z,10.80
2022-11-15T09:21:00.115Z,10.80
2022-11-15T09:23:28.401Z,10.80
2022-11-15T09:26:01.247Z,10.90
2022-11-15T09:28:29.786Z,10.90
2022-11-15T09:30:59.774Z,11.00
2022-11-15T09:33:28.531Z,11.00
2022-11-15T09:35:56.473Z,11.00
2022-11-15T09:38:25.755Z,11.10
2022-11-15T09:41:09.678Z,11.10
2022-11-15T09:43:44.907Z,11.20
2022-11-15T09:46:17.852Z,11.30
2022-11-15T09:48:53.817Z,11.40
2022-11-15T09:51:29.521Z,11.40
2022-11-15T09:56:57.722Z,11.40
2022-11-15T09:59:41.530Z,11.40
2022-11-15T10:02:22.514Z,11.50
2022-11-15T10:04:50.469Z,11.50
2022-11-15T10:07:25.641Z,11.50
2022-11-15T10:09:58.572Z,11.50
2022-11-15T10:12:28.007Z,11.60
2022-11-15T10:15:03.026Z,11.60
2022-11-15T10:17:57.182Z,11.60
2022-11-15T10:20:27.511Z,11.60
2022-11-15T10:22:58.070Z,11.60
2022-11-15T10:25:29.772Z,11.70
2022-11-15T10:28:00.017Z,11.70
2022-11-15T10:30:34.974Z,11.70
2022-11-15T10:33:19.522Z,11.70
2022-11-15T10:35:47.446Z,11.70
2022-11-15T10:38:15.367Z,11.70
2022-11-15T10:40:45.856Z,11.70
2022-11-15T10:43:18.793Z,11.70
2022-11-15T10:45:47.599Z,11.70
2022-11-15T10:48:47.357Z,11.70
2022-11-15T10:51:23.355Z,11.70
2022-11-15T10:53:53.249Z,11.60
2022-11-15T10:56:24.639Z,11.60
2022-11-15T10:58:55.066Z,11.70
2022-11-15T11:01:25.779Z,11.70
2022-11-15T11:04:01.930Z,11.70
2022-11-15T11:06:30.412Z,11.80
2022-11-15T11:09:00.001Z,11.80
2022-11-15T11:11:46.795Z,11.80
2022-11-15T11:14:18.871Z,11.90
2022-11-15T11:16:51.632Z,11.90
2022-11-15T11:19:46.059Z,11.90
2022-11-15T11:22:21.695Z,11.90
2022-11-15T11:25:00.298Z,11.90
2022-11-15T11:27:40.857Z,12.00
2022-11-15T11:30:15.305Z,12.00
2022-11-15T11:32:55.446Z,12.00
2022-11-15T11:35:31.589Z,12.00
2022-11-15T11:38:15.762Z,12.10
2022-11-15T11:40:53.159Z,12.10
2022-11-15T11:43:30.981Z,12.10
2022-11-15T11:46:21.219Z,12.20
2022-11-15T11:48:54.076Z,12.20
2022-11-15T11:51:26.540Z,12.20
2022-11-15T11:53:59.278Z,12.20
2022-11-15T11:56:30.387Z,12.20
2022-11-15T11:59:07.805Z,12.20
2022-11-15T12:01:39.236Z,12.20
2022-11-15T12:04:13.585Z,12.10
2022-11-15T12:06:48.343Z,12.10
2022-11-15T12:09:22.685Z,12.10
2022-11-15T12:11:58.896Z,12.10
2022-11-15T12:14:37.820Z,12.10
2022-11-15T12:17:06.173Z,12.20
2022-11-15T12:19:34.177Z,12.20
2022-11-15T12:22:06.881Z,12.20
2022-11-15T12:24:41.549Z,12.20
2022-11-15T12:27:24.971Z,12.20
2022-11-15T12:29:59.242Z,12.20
2022-11-15T12:32:30.780Z,12.20
2022-11-15T12:35:00.526Z,12.20
2022-11-15T12:37:55.965Z,12.20
2022-11-15T12:40:38.523Z,12.20
2022-11-15T12:43:42.107Z,12.10
2022-11-15T12:46:21.858Z,12.10
2022-11-15T12:48:58.424Z,12.10
2022-11-15T12:52:06.636Z,12.10
2022-11-15T12:54:57.693Z,12.10
2022-11-15T12:57:41.586Z,12.10
2022-11-15T13:00:48.272Z,12.10
2022-11-15T13:03:35.546Z,12.10
2022-11-15T13:06:31.129Z,12.10
2022-11-15T13:09:00.366Z,12.10
2022-11-15T13:11:47.525Z,12.10
2022-11-15T13:14:41.467Z,12.10
2022-11-15T13:17:25.105Z,12.10
2022-11-15T13:19:59.698Z,12.10
2022-11-15T13:22:45.348Z,12.20
2022-11-15T13:25:43.277Z,12.20
2022-11-15T13:28:20.573Z,12.20
2022-11-15T13:30:52.918Z,12.20
2022-11-15T13:33:23.497Z,12.20
2022-11-15T13:35:53.879Z,12.20
2022-11-15T13:38:28.615Z,12.20
2022-11-15T13:40:58.653Z,12.20
2022-11-15T13:43:33.765Z,12.20
2022-11-15T13:46:12.598Z,12.20
2022-11-15T13:48:40.870Z,12.20
2022-11-15T13:51:14.961Z,12.20
2022-11-15T13:53:47.811Z,12.20
2022-11-15T13:56:18.439Z,12.20
2022-11-15T13:58:46.437Z,12.20
2022-11-15T14:01:20.575Z,12.10
2022-11-15T14:03:52.724Z,12.10
2022-11-15T14:06:23.043Z,12.10
2022-11-15T14:09:15.750Z,12.10
2022-11-15T14:11:54.489Z,12.00
2022-11-15T14:14:24.403Z,12.00
2022-11-15T14:16:55.021Z,11.90
2022-11-15T14:19:43.123Z,11.90
2022-11-15T14:22:17.602Z,11.90
2022-11-15T14:24:47.462Z,11.90
2022-11-15T14:27:25.427Z,11.80
2022-11-15T14:29:55.123Z,11.80
2022-11-15T14:32:25.133Z,11.80
2022-11-15T14:34:57.522Z,11.70
2022-11-15T14:37:26.979Z,11.70
2022-11-15T14:39:57.827Z,11.70
2022-11-15T14:42:27.181Z,11.70
2022-11-15T14:44:55.087Z,11.60
2022-11-15T14:47:24.530Z,11.60
2022-11-15T14:49:53.255Z,11.60
2022-11-15T14:52:32.924Z,11.60
2022-11-15T14:55:02.258Z,11.60
2022-11-15T14:57:38.929Z,11.60
2022-11-15T15:00:18.523Z,11.70
2022-11-15T15:02:48.704Z,11.70
2022-11-15T15:05:18.909Z,11.70
2022-11-15T15:07:49.712Z,11.70
2022-11-15T15:13:12.517Z,11.70
2022-11-15T15:15:41.473Z,11.80
2022-11-15T15:18:12.370Z,11.80
2022-11-15T15:20:43.936Z,11.80
2022-11-15T15:23:30.461Z,11.80
2022-11-15T15:25:59.811Z,11.80
2022-11-15T15:28:34.873Z,11.80
2022-11-15T15:31:08.513Z,11.80
2022-11-15T15:33:36.471Z,11.80
2022-11-15T15:36:05.013Z,11.80
2022-11-15T15:38:33.225Z,11.80
2022-11-15T15:41:03.768Z,11.80
2022-11-15T15:43:33.420Z,11.80
2022-11-15T15:46:01.406Z,11.80
2022-11-15T15:48:30.043Z,11.80
2022-11-15T15:50:59.699Z,11.80
2022-11-15T15:53:28.608Z,11.80
2022-11-15T15:55:56.487Z,11.80
2022-11-15T15:58:27.081Z,11.80
2022-11-15T16:00:57.512Z,11.80
2022-11-15T16:03:25.608Z,11.80
2022-11-15T16:05:55.276Z,11.90
2022-11-15T16:08:27.412Z,11.90
2022-11-15T16:10:56.728Z,11.90
2022-11-15T16:13:24.748Z,11.90
2022-11-15T16:15:56.602Z,11.90
2022-11-15T16:18:25.608Z,12.00
2022-11-15T16:20:57.499Z,12.00
2022-11-15T16:23:27.474Z,12.00
2022-11-15T16:25:57.495Z,12.00
2022-11-15T16:28:30.071Z,12.00
2022-11-15T16:31:07.558Z,12.00
2022-11-15T16:33:37.112Z,12.00
2022-11-15T16:36:07.609Z,12.10
2022-11-15T16:38:40.949Z,12.10
2022-11-15T16:41:09.081Z,12.10
2022-11-15T16:43:36.918Z,12.10
2022-11-15T16:46:14.341Z,12.10
2022-11-15T16:48:42.111Z,12.10
2022-11-15T16:51:10.599Z,12.10
2022-11-15T16:53:39.718Z,12.10
2022-11-15T16:56:19.736Z,12.10
2022-11-15T16:58:50.065Z,12.10
2022-11-15T17:01:27.688Z,12.10
2022-11-15T17:03:56.105Z,12.10
2022-11-15T17:06:24.629Z,12.10
2022-11-15T17:08:52.878Z,12.20
2022-11-15T17:11:22.476Z,12.20
2022-11-15T17:13:50.922Z,12.20
2022-11-15T17:16:20.958Z,12.30
2022-11-15T17:18:52.330Z,12.30
2022-11-15T17:21:22.261Z,12.20
2022-11-15T17:23:50.477Z,12.20
2022-11-15T17:26:29.599Z,12.20
2022-11-15T17:29:00.882Z,12.20
2022-11-15T17:31:33.678Z,12.10
2022-11-15T17:34:03.818Z,12.10
2022-11-15T17:36:31.956Z,12.10
2022-11-15T17:39:00.322Z,12.10
2022-11-15T17:41:29.283Z,12.00
2022-11-15T17:43:58.950Z,12.00
2022-11-15T17:46:31.211Z,12.00
2022-11-15T17:48:59.271Z,11.90
2022-11-15T17:51:27.352Z,11.90
2022-11-15T17:53:57.270Z,11.90
2022-11-15T17:56:26.982Z,11.90
2022-11-15T17:58:56.343Z,11.80
2022-11-15T18:01:28.165Z,11.80
2022-11-15T18:04:00.463Z,11.80
2022-11-15T18:06:32.708Z,11.80
2022-11-15T18:09:01.246Z,11.70
2022-11-15T18:11:31.117Z,11.70
2022-11-15T18:14:01.856Z,11.70
2022-11-15T18:16:31.909Z,11.70
2022-11-15T18:19:01.969Z,11.60
2022-11-15T18:21:31.376Z,11.60
2022-11-15T18:24:00.571Z,11.60
2022-11-15T18:26:30.290Z,11.50
2022-11-15T18:29:03.024Z,11.50
2022-11-15T18:31:32.891Z,11.50
2022-11-15T18:34:03.126Z,11.40
2022-11-15T18:36:31.913Z,11.40
2022-11-15T18:39:02.316Z,11.40
2022-11-15T18:41:32.013Z,11.40
2022-11-15T18:44:01.404Z,11.30
2022-11-15T18:46:31.048Z,11.30
2022-11-15T18:49:02.168Z,11.30
2022-11-15T18:51:31.678Z,11.30
2022-11-15T18:54:01.401Z,11.30
2022-11-15T18:56:31.319Z,11.30
2022-11-15T18:59:00.717Z,11.30
2022-11-15T19:01:32.620Z,11.30
2022-11-15T19:04:04.522Z,11.30
2022-11-15T19:06:32.586Z,11.30
2022-11-15T19:09:01.315Z,11.40
2022-11-15T19:11:39.912Z,11.30
2022-11-15T19:14:17.416Z,11.30
2022-11-15T19:16:51.026Z,11.30
2022-11-15T19:19:21.981Z,11.30
2022-11-15T19:21:57.490Z,11.30
2022-11-15T19:24:27.110Z,11.30
2022-11-15T19:26:59.483Z,11.30
2022-11-15T19:29:27.383Z,11.30
2022-11-15T19:31:55.641Z,11.30
2022-11-15T19:34:25.144Z,11.30
2022-11-15T19:36:55.039Z,11.30
2022-11-15T19:39:26.552Z,11.30
2022-11-15T19:41:55.872Z,11.30
2022-11-15T19:44:27.014Z,11.30
2022-11-15T19:46:56.008Z,11.30
2022-11-15T19:49:27.803Z,11.30
2022-11-15T19:51:55.642Z,11.30
2022-11-15T19:54:23.982Z,11.30
2022-11-15T19:56:54.289Z,11.30
2022-11-15T19:59:22.831Z,11.30
2022-11-15T20:01:50.889Z,11.40
2022-11-15T20:04:19.100Z,11.40
2022-11-15T20:06:49.922Z,11.40
2022-11-15T20:09:18.086Z,11.40
2022-11-15T20:11:50.975Z,11.40
2022-11-15T20:14:23.752Z,11.40
2022-11-15T20:16:54.428Z,11.40
2022-11-15T20:19:25.068Z,11.40
2022-11-15T20:21:59.810Z,11.40
2022-11-15T20:24:32.913Z,11.40
2022-11-15T20:27:06.188Z,11.40
2022-11-15T20:29:41.056Z,11.40
2022-11-15T20:32:15.125Z,11.40
2022-11-15T20:34:53.926Z,11.40
2022-11-15T20:37:30.309Z,11.40
2022-11-15T20:40:00.980Z,11.40
2022-11-15T20:42:32.853Z,11.40
2022-11-15T20:45:02.923Z,11.40
2022-11-15T20:47:34.324Z,11.40
2022-11-15T20:50:28.011Z,11.40
2022-11-15T20:52:58.650Z,11.40
2022-11-15T20:55:36.258Z,11.40
2022-11-15T21:00:54.179Z,11.40
2022-11-15T21:03:46.424Z,11.40
2022-11-15T21:06:21.130Z,11.40
2022-11-15T21:09:11.316Z,11.40
2022-11-15T21:11:57.685Z,11.40
2022-11-15T21:14:32.997Z,11.40
2022-11-15T21:17:03.854Z,11.50
2022-11-15T21:19:36.942Z,11.50
2022-11-15T21:22:10.528Z,11.50
2022-11-15T21:24:46.585Z,11.50
2022-11-15T21:27:20.251Z,11.50
2022-11-15T21:29:52.955Z,11.50
2022-11-15T21:32:35.651Z,11.50
2022-11-15T21:35:07.101Z,11.50
2022-11-15T21:37:43.747Z,11.50
2022-11-15T21:40:35.773Z,11.60
2022-11-15T21:43:23.254Z,11.60
2022-11-15T21:46:09.584Z,11.60
2022-11-15T21:48:55.317Z,11.60
2022-11-15T21:51:24.322Z,11.60
2022-11-15T21:54:09.586Z,11.60
2022-11-15T21:57:02.750Z,11.60
2022-11-15T21:59:56.068Z,11.60
2022-11-15T22:02:38.578Z,11.60
2022-11-15T22:07:55.285Z,11.60
2022-11-15T22:10:28.164Z,11.60
2022-11-15T22:13:00.534Z,11.60
2022-11-15T22:15:37.982Z,11.60
2022-11-15T22:18:07.550Z,11.60
2022-11-15T22:20:44.547Z,11.60
2022-11-15T22:23:16.996Z,11.60
2022-11-15T22:25:45.444Z,11.60
2022-11-15T22:28:16.206Z,11.60
2022-11-15T22:30:46.841Z,11.60
2022-11-15T22:33:21.542Z,11.60
2022-11-15T22:35:51.092Z,11.60
2022-11-15T22:38:24.707Z,11.60
2022-11-15T22:40:59.823Z,11.70
2022-11-15T22:43:39.816Z,11.70
2022-11-15T22:46:10.677Z,11.70
2022-11-15T22:48:43.241Z,11.70
2022-11-15T22:51:12.034Z,11.70
2022-11-15T22:53:40.695Z,11.70
2022-11-15T22:56:09.262Z,11.70
2022-11-15T22:58:47.075Z,11.70
2022-11-15T23:01:24.859Z,11.70
2022-11-15T23:03:55.645Z,11.70
2022-11-15T23:06:39.059Z,11.70
2022-11-15T23:09:10.074Z,11.70
2022-11-15T23:11:59.214Z,11.80
2022-11-15T23:14:31.687Z,11.80
2022-11-15T23:17:16.808Z,11.80
2022-11-15T23:20:07.467Z,11.80
2022-11-15T23:22:54.869Z,11.80
2022-11-15T23:25:26.787Z,11.80
2022-11-15T23:27:55.882Z,11.80
2022-11-15T23:30:50.525Z,11.80
2022-11-15T23:33:37.387Z,11.80
2022-11-15T23:36:11.669Z,11.80
2022-11-15T23:38:40.991Z,11.80
2022-11-15T23:41:14.691Z,11.80
2022-11-15T23:43:50.046Z,11.80
2022-11-15T23:46:25.218Z,11.80
2022-11-15T23:49:03.343Z,11.80
2022-11-15T23:51:38.524Z,11.80
2022-11-15T23:54:09.021Z,11.80
2022-11-15T23:56:41.998Z,11.80
2022-11-15T23:59:11.938Z,11.80
